sensor_id;sensor_type;location;lat;lon;timestamp;pressure;altitude;pressure_sealevel;temperature;humidity
35489;BME280;21602;55.670;37.578;2023-02-10T00:01:04;100208.19;;;-1.11;76.40
35489;BME280;21602;55.670;37.578;2023-02-10T00:03:31;100199.25;;;-1.08;76.38
35489;BME280;21602;55.670;37.578;2023-02-10T00:05:57;100190.97;;;-1.04;76.17
35489;BME280;21602;55.670;37.578;2023-02-10T00:08:23;100187.38;;;-1.02;75.89
35489;BME280;21602;55.670;37.578;2023-02-10T00:10:50;100184.75;;;-1.02;75.80
35489;BME280;21602;55.670;37.578;2023-02-10T00:13:16;100184.19;;;-1.06;75.84
35489;BME280;21602;55.670;37.578;2023-02-10T00:15:42;100189.28;;;-1.05;75.66
35489;BME280;21602;55.670;37.578;2023-02-10T00:18:08;100188.34;;;-1.04;75.69
35489;BME280;21602;55.670;37.578;2023-02-10T00:20:33;100180.06;;;-0.99;75.86
35489;BME280;21602;55.670;37.578;2023-02-10T00:22:59;100175.50;;;-0.97;75.43
35489;BME280;21602;55.670;37.578;2023-02-10T00:25:26;100166.81;;;-0.97;75.36
35489;BME280;21602;55.670;37.578;2023-02-10T00:27:52;100161.84;;;-1.00;75.59
35489;BME280;21602;55.670;37.578;2023-02-10T00:30:20;100164.34;;;-0.99;75.28
35489;BME280;21602;55.670;37.578;2023-02-10T00:32:46;100153.03;;;-0.99;75.34
35489;BME280;21602;55.670;37.578;2023-02-10T00:35:13;100150.69;;;-1.02;75.27
35489;BME280;21602;55.670;37.578;2023-02-10T00:37:39;100153.31;;;-1.02;75.09
35489;BME280;21602;55.670;37.578;2023-02-10T00:40:05;100149.44;;;-1.08;74.42
35489;BME280;21602;55.670;37.578;2023-02-10T00:42:31;100146.00;;;-1.18;74.48
35489;BME280;21602;55.670;37.578;2023-02-10T00:44:57;100147.50;;;-1.25;74.45
35489;BME280;21602;55.670;37.578;2023-02-10T00:47:23;100145.72;;;-1.25;74.46
35489;BME280;21602;55.670;37.578;2023-02-10T00:49:53;100140.78;;;-1.28;74.40
35489;BME280;21602;55.670;37.578;2023-02-10T00:52:22;100118.03;;;-1.37;74.76
35489;BME280;21602;55.670;37.578;2023-02-10T00:54:48;100129.44;;;-1.38;74.67
35489;BME280;21602;55.670;37.578;2023-02-10T00:57:14;100122.56;;;-1.39;74.74
35489;BME280;21602;55.670;37.578;2023-02-10T00:59:41;100134.69;;;-1.38;74.87
35489;BME280;21602;55.670;37.578;2023-02-10T01:02:07;100108.78;;;-1.41;74.66
35489;BME280;21602;55.670;37.578;2023-02-10T01:04:36;100109.59;;;-1.50;74.60
35489;BME280;21602;55.670;37.578;2023-02-10T01:07:02;100103.41;;;-1.49;74.67
35489;BME280;21602;55.670;37.578;2023-02-10T01:09:29;100093.75;;;-1.49;75.01
35489;BME280;21602;55.670;37.578;2023-02-10T01:11:55;100094.03;;;-1.42;74.89
35489;BME280;21602;55.670;37.578;2023-02-10T01:14:40;100099.53;;;-1.45;74.67
35489;BME280;21602;55.670;37.578;2023-02-10T01:17:06;100094.31;;;-1.45;74.68
35489;BME280;21602;55.670;37.578;2023-02-10T01:19:35;100089.88;;;-1.45;74.62
35489;BME280;21602;55.670;37.578;2023-02-10T01:22:01;100089.34;;;-1.48;74.98
35489;BME280;21602;55.670;37.578;2023-02-10T01:24:26;100079.41;;;-1.55;74.59
35489;BME280;21602;55.670;37.578;2023-02-10T01:26:55;100076.38;;;-1.60;75.08
35489;BME280;21602;55.670;37.578;2023-02-10T01:29:21;100072.66;;;-1.57;75.14
35489;BME280;21602;55.670;37.578;2023-02-10T01:31:46;100066.88;;;-1.61;75.10
35489;BME280;21602;55.670;37.578;2023-02-10T01:34:12;100075.56;;;-1.60;75.22
35489;BME280;21602;55.670;37.578;2023-02-10T01:36:38;100065.91;;;-1.60;75.26
35489;BME280;21602;55.670;37.578;2023-02-10T01:39:05;100051.59;;;-1.56;75.31
35489;BME280;21602;55.670;37.578;2023-02-10T01:41:31;100047.84;;;-1.53;75.49
35489;BME280;21602;55.670;37.578;2023-02-10T01:46:55;100055.69;;;-1.43;75.21
35489;BME280;21602;55.670;37.578;2023-02-10T01:49:30;100043.84;;;-1.38;75.06
35489;BME280;21602;55.670;37.578;2023-02-10T01:52:06;100046.44;;;-1.38;74.97
35489;BME280;21602;55.670;37.578;2023-02-10T01:54:41;100035.44;;;-1.41;75.06
35489;BME280;21602;55.670;37.578;2023-02-10T01:57:08;100036.44;;;-1.42;74.91
35489;BME280;21602;55.670;37.578;2023-02-10T01:59:37;100036.84;;;-1.47;75.08
35489;BME280;21602;55.670;37.578;2023-02-10T02:02:05;100035.56;;;-1.43;75.25
35489;BME280;21602;55.670;37.578;2023-02-10T02:04:46;100038.06;;;-1.41;75.08
35489;BME280;21602;55.670;37.578;2023-02-10T02:07:13;100046.03;;;-1.43;75.04
35489;BME280;21602;55.670;37.578;2023-02-10T02:09:40;100038.34;;;-1.44;75.20
35489;BME280;21602;55.670;37.578;2023-02-10T02:20:34;100026.91;;;-1.72;75.84
35489;BME280;21602;55.670;37.578;2023-02-10T02:23:27;100025.41;;;-1.65;75.73
35489;BME280;21602;55.670;37.578;2023-02-10T02:39:43;99988.88;;;-1.76;76.06
35489;BME280;21602;55.670;37.578;2023-02-10T02:42:24;99978.97;;;-1.83;76.41
35489;BME280;21602;55.670;37.578;2023-02-10T02:44:54;99971.53;;;-1.87;76.26
35489;BME280;21602;55.670;37.578;2023-02-10T02:51:21;99956.94;;;-1.80;76.57
35489;BME280;21602;55.670;37.578;2023-02-10T02:53:40;99954.34;;;-1.80;76.32
35489;BME280;21602;55.670;37.578;2023-02-10T02:56:36;99950.03;;;-1.81;76.43
35489;BME280;21602;55.670;37.578;2023-02-10T02:59:24;99945.50;;;-1.79;76.21
35489;BME280;21602;55.670;37.578;2023-02-10T03:02:06;99940.28;;;-1.89;76.26
35489;BME280;21602;55.670;37.578;2023-02-10T03:04:34;99942.75;;;-1.87;76.40
35489;BME280;21602;55.670;37.578;2023-02-10T03:07:01;99934.50;;;-1.92;76.48
35489;BME280;21602;55.670;37.578;2023-02-10T03:09:28;99940.28;;;-1.98;76.63
35489;BME280;21602;55.670;37.578;2023-02-10T03:11:54;99947.03;;;-1.96;76.81
35489;BME280;21602;55.670;37.578;2023-02-10T03:14:20;99933.41;;;-1.90;76.82
35489;BME280;21602;55.670;37.578;2023-02-10T03:16:46;99935.31;;;-1.82;76.64
35489;BME280;21602;55.670;37.578;2023-02-10T03:19:12;99919.91;;;-1.85;76.67
35489;BME280;21602;55.670;37.578;2023-02-10T03:21:38;99913.69;;;-1.84;76.82
35489;BME280;21602;55.670;37.578;2023-02-10T03:24:04;99911.34;;;-1.77;76.84
35489;BME280;21602;55.670;37.578;2023-02-10T03:26:30;99909.28;;;-1.74;76.71
35489;BME280;21602;55.670;37.578;2023-02-10T03:28:56;99907.22;;;-1.70;76.45
35489;BME280;21602;55.670;37.578;2023-02-10T03:31:23;99898.94;;;-1.66;76.27
35489;BME280;21602;55.670;37.578;2023-02-10T03:33:49;99894.50;;;-1.65;76.51
35489;BME280;21602;55.670;37.578;2023-02-10T03:36:15;99888.03;;;-1.61;76.46
35489;BME280;21602;55.670;37.578;2023-02-10T03:38:41;99871.63;;;-1.63;76.30
35489;BME280;21602;55.670;37.578;2023-02-10T03:41:07;99875.78;;;-1.70;76.25
35489;BME280;21602;55.670;37.578;2023-02-10T03:43:33;99874.00;;;-1.70;76.44
35489;BME280;21602;55.670;37.578;2023-02-10T03:46:03;99867.94;;;-1.70;76.49
35489;BME280;21602;55.670;37.578;2023-02-10T03:48:29;99864.34;;;-1.69;76.51
35489;BME280;21602;55.670;37.578;2023-02-10T03:51:02;99859.78;;;-1.67;76.58
35489;BME280;21602;55.670;37.578;2023-02-10T03:53:29;99842.72;;;-1.71;76.58
35489;BME280;21602;55.670;37.578;2023-02-10T03:55:56;99849.31;;;-1.67;76.66
35489;BME280;21602;55.670;37.578;2023-02-10T03:58:22;99837.75;;;-1.65;76.57
35489;BME280;21602;55.670;37.578;2023-02-10T04:00:48;99837.16;;;-1.59;76.53
35489;BME280;21602;55.670;37.578;2023-02-10T04:03:14;99831.66;;;-1.56;76.32
35489;BME280;21602;55.670;37.578;2023-02-10T04:05:40;99835.25;;;-1.57;76.43
35489;BME280;21602;55.670;37.578;2023-02-10T04:08:06;99836.06;;;-1.56;76.24
35489;BME280;21602;55.670;37.578;2023-02-10T04:10:33;99833.28;;;-1.55;76.24
35489;BME280;21602;55.670;37.578;2023-02-10T04:12:58;99836.06;;;-1.56;76.17
35489;BME280;21602;55.670;37.578;2023-02-10T04:15:24;99834.38;;;-1.57;76.29
35489;BME280;21602;55.670;37.578;2023-02-10T04:17:51;99833.06;;;-1.61;76.45
35489;BME280;21602;55.670;37.578;2023-02-10T04:20:17;99828.75;;;-1.62;76.44
35489;BME280;21602;55.670;37.578;2023-02-10T04:22:43;99826.44;;;-1.65;76.65
35489;BME280;21602;55.670;37.578;2023-02-10T04:25:09;99818.06;;;-1.69;76.64
35489;BME280;21602;55.670;37.578;2023-02-10T04:27:36;99817.38;;;-1.71;76.55
35489;BME280;21602;55.670;37.578;2023-02-10T04:30:02;99811.16;;;-1.70;76.62
35489;BME280;21602;55.670;37.578;2023-02-10T04:32:29;99811.16;;;-1.70;76.91
35489;BME280;21602;55.670;37.578;2023-02-10T04:34:55;99802.19;;;-1.67;76.71
35489;BME280;21602;55.670;37.578;2023-02-10T04:37:21;99799.34;;;-1.74;76.58
35489;BME280;21602;55.670;37.578;2023-02-10T04:39:47;99800.31;;;-1.75;76.75
35489;BME280;21602;55.670;37.578;2023-02-10T04:42:13;99800.59;;;-1.78;77.02
35489;BME280;21602;55.670;37.578;2023-02-10T04:44:39;99798.94;;;-1.79;77.09
35489;BME280;21602;55.670;37.578;2023-02-10T04:47:05;99793.88;;;-1.90;77.38
35489;BME280;21602;55.670;37.578;2023-02-10T04:49:31;99793.06;;;-2.00;77.55
35489;BME280;21602;55.670;37.578;2023-02-10T04:51:57;99797.06;;;-1.96;77.66
35489;BME280;21602;55.670;37.578;2023-02-10T04:54:23;99792.09;;;-1.99;77.54
35489;BME280;21602;55.670;37.578;2023-02-10T04:56:50;99793.09;;;-2.10;77.83
35489;BME280;21602;55.670;37.578;2023-02-10T04:59:16;99795.03;;;-2.12;78.01
35489;BME280;21602;55.670;37.578;2023-02-10T05:01:43;99787.19;;;-2.12;78.18
35489;BME280;21602;55.670;37.578;2023-02-10T05:04:08;99799.97;;;-2.09;78.17
35489;BME280;21602;55.670;37.578;2023-02-10T05:06:34;99798.59;;;-2.03;78.15
35489;BME280;21602;55.670;37.578;2023-02-10T05:09:00;99792.09;;;-1.99;78.10
35489;BME280;21602;55.670;37.578;2023-02-10T05:11:26;99786.19;;;-2.01;78.22
35489;BME280;21602;55.670;37.578;2023-02-10T05:13:52;99778.09;;;-2.08;78.44
35489;BME280;21602;55.670;37.578;2023-02-10T05:16:19;99769.81;;;-2.03;78.62
35489;BME280;21602;55.670;37.578;2023-02-10T05:18:45;99781.66;;;-2.09;78.49
35489;BME280;21602;55.670;37.578;2023-02-10T05:21:13;99783.03;;;-2.05;78.36
35489;BME280;21602;55.670;37.578;2023-02-10T05:23:39;99778.78;;;-2.16;78.48
35489;BME280;21602;55.670;37.578;2023-02-10T05:26:05;99759.13;;;-2.20;78.80
35489;BME280;21602;55.670;37.578;2023-02-10T05:28:31;99762.13;;;-2.15;78.93
35489;BME280;21602;55.670;37.578;2023-02-10T05:30:57;99756.63;;;-2.12;78.70
35489;BME280;21602;55.670;37.578;2023-02-10T05:33:23;99761.31;;;-2.15;78.96
35489;BME280;21602;55.670;37.578;2023-02-10T05:35:49;99760.50;;;-2.16;78.58
35489;BME280;21602;55.670;37.578;2023-02-10T05:38:16;99747.00;;;-2.21;78.89
35489;BME280;21602;55.670;37.578;2023-02-10T05:40:42;99749.50;;;-2.29;79.20
35489;BME280;21602;55.670;37.578;2023-02-10T05:43:08;99740.00;;;-2.30;79.46
35489;BME280;21602;55.670;37.578;2023-02-10T05:45:35;99746.75;;;-2.27;79.09
35489;BME280;21602;55.670;37.578;2023-02-10T05:48:01;99741.22;;;-2.24;79.23
35489;BME280;21602;55.670;37.578;2023-02-10T05:50:28;99738.50;;;-2.23;79.39
35489;BME280;21602;55.670;37.578;2023-02-10T05:52:56;99737.66;;;-2.23;79.08
35489;BME280;21602;55.670;37.578;2023-02-10T05:55:22;99734.94;;;-2.32;79.02
35489;BME280;21602;55.670;37.578;2023-02-10T05:57:48;99731.91;;;-2.27;79.00
35489;BME280;21602;55.670;37.578;2023-02-10T06:00:16;99732.16;;;-2.30;78.87
35489;BME280;21602;55.670;37.578;2023-02-10T06:02:42;99742.50;;;-2.38;79.15
35489;BME280;21602;55.670;37.578;2023-02-10T06:05:07;99720.50;;;-2.36;78.95
35489;BME280;21602;55.670;37.578;2023-02-10T06:07:33;99721.75;;;-2.49;79.03
35489;BME280;21602;55.670;37.578;2023-02-10T06:09:59;99715.56;;;-2.58;79.38
35489;BME280;21602;55.670;37.578;2023-02-10T06:12:25;99716.41;;;-2.58;79.59
35489;BME280;21602;55.670;37.578;2023-02-10T06:14:50;99694.25;;;-2.53;79.56
35489;BME280;21602;55.670;37.578;2023-02-10T06:17:17;99700.72;;;-2.58;79.33
35489;BME280;21602;55.670;37.578;2023-02-10T06:19:43;99699.50;;;-2.63;79.25
35489;BME280;21602;55.670;37.578;2023-02-10T06:22:09;99698.66;;;-2.64;79.48
35489;BME280;21602;55.670;37.578;2023-02-10T06:24:35;99706.91;;;-2.59;79.41
35489;BME280;21602;55.670;37.578;2023-02-10T06:27:01;99682.97;;;-2.54;79.30
35489;BME280;21602;55.670;37.578;2023-02-10T06:29:27;99675.53;;;-2.49;79.29
35489;BME280;21602;55.670;37.578;2023-02-10T06:31:53;99680.09;;;-2.51;79.16
35489;BME280;21602;55.670;37.578;2023-02-10T06:34:18;99663.03;;;-2.55;79.26
35489;BME280;21602;55.670;37.578;2023-02-10T06:36:44;99671.13;;;-2.58;79.07
35489;BME280;21602;55.670;37.578;2023-02-10T06:39:10;99675.28;;;-2.55;79.14
35489;BME280;21602;55.670;37.578;2023-02-10T06:41:36;99672.25;;;-2.61;79.08
35489;BME280;21602;55.670;37.578;2023-02-10T06:44:01;99676.91;;;-2.54;79.22
35489;BME280;21602;55.670;37.578;2023-02-10T06:46:27;99666.59;;;-2.46;78.96
35489;BME280;21602;55.670;37.578;2023-02-10T06:48:53;99653.91;;;-2.41;78.96
35489;BME280;21602;55.670;37.578;2023-02-10T06:51:19;99631.03;;;-2.39;78.49
35489;BME280;21602;55.670;37.578;2023-02-10T06:53:45;99630.88;;;-2.38;78.61
35489;BME280;21602;55.670;37.578;2023-02-10T06:56:11;99605.31;;;-2.44;78.53
35489;BME280;21602;55.670;37.578;2023-02-10T06:58:37;99588.81;;;-2.44;78.63
35489;BME280;21602;55.670;37.578;2023-02-10T07:01:11;99600.66;;;-2.40;78.57
35489;BME280;21602;55.670;37.578;2023-02-10T07:03:38;99607.13;;;-2.44;78.35
35489;BME280;21602;55.670;37.578;2023-02-10T07:06:04;99597.22;;;-2.41;78.20
35489;BME280;21602;55.670;37.578;2023-02-10T07:08:31;99590.47;;;-2.43;77.99
35489;BME280;21602;55.670;37.578;2023-02-10T07:10:57;99566.81;;;-2.42;78.07
35489;BME280;21602;55.670;37.578;2023-02-10T07:13:23;99568.44;;;-2.41;78.09
35489;BME280;21602;55.670;37.578;2023-02-10T07:15:49;99568.69;;;-2.34;77.79
35489;BME280;21602;55.670;37.578;2023-02-10T07:18:15;99552.16;;;-2.35;77.75
35489;BME280;21602;55.670;37.578;2023-02-10T07:20:41;99533.97;;;-2.26;77.71
35489;BME280;21602;55.670;37.578;2023-02-10T07:23:07;99531.28;;;-2.17;77.43
35489;BME280;21602;55.670;37.578;2023-02-10T07:25:33;99530.25;;;-2.06;77.25
35489;BME280;21602;55.670;37.578;2023-02-10T07:27:58;99550.47;;;-1.98;76.96
35489;BME280;21602;55.670;37.578;2023-02-10T07:30:24;99550.13;;;-1.95;76.66
35489;BME280;21602;55.670;37.578;2023-02-10T07:32:51;99528.84;;;-2.00;76.24
35489;BME280;21602;55.670;37.578;2023-02-10T07:35:17;99528.84;;;-2.00;76.25
35489;BME280;21602;55.670;37.578;2023-02-10T07:37:43;99513.22;;;-1.92;76.16
35489;BME280;21602;55.670;37.578;2023-02-10T07:40:10;99517.84;;;-1.86;75.73
35489;BME280;21602;55.670;37.578;2023-02-10T07:42:35;99525.41;;;-1.83;75.69
35489;BME280;21602;55.670;37.578;2023-02-10T07:45:23;99502.75;;;-1.74;75.24
35489;BME280;21602;55.670;37.578;2023-02-10T07:47:48;99510.44;;;-1.55;75.29
35489;BME280;21602;55.670;37.578;2023-02-10T07:50:14;99512.06;;;-1.36;74.29
35489;BME280;21602;55.670;37.578;2023-02-10T07:52:40;99504.16;;;-1.18;74.10
35489;BME280;21602;55.670;37.578;2023-02-10T07:55:07;99482.75;;;-1.06;73.92
35489;BME280;21602;55.670;37.578;2023-02-10T07:57:33;99482.81;;;-0.97;73.27
35489;BME280;21602;55.670;37.578;2023-02-10T07:59:59;99506.69;;;-1.00;72.70
35489;BME280;21602;55.670;37.578;2023-02-10T08:02:24;99493.94;;;-0.95;72.74
35489;BME280;21602;55.670;37.578;2023-02-10T08:04:50;99488.06;;;-0.97;72.61
35489;BME280;21602;55.670;37.578;2023-02-10T08:07:20;99489.19;;;-1.00;72.90
35489;BME280;21602;55.670;37.578;2023-02-10T08:09:46;99482.41;;;-1.11;72.20
35489;BME280;21602;55.670;37.578;2023-02-10T08:12:12;99496.50;;;-1.12;72.34
35489;BME280;21602;55.670;37.578;2023-02-10T08:14:38;99474.44;;;-1.01;72.50
35489;BME280;21602;55.670;37.578;2023-02-10T08:17:03;99494.63;;;-0.93;72.42
35489;BME280;21602;55.670;37.578;2023-02-10T08:19:29;99486.78;;;-0.93;72.20
35489;BME280;21602;55.670;37.578;2023-02-10T08:21:55;99486.72;;;-1.01;71.87
35489;BME280;21602;55.670;37.578;2023-02-10T08:24:21;99499.53;;;-0.98;71.95
35489;BME280;21602;55.670;37.578;2023-02-10T08:26:46;99492.44;;;-1.06;71.41
35489;BME280;21602;55.670;37.578;2023-02-10T08:29:12;99482.41;;;-1.11;71.09
35489;BME280;21602;55.670;37.578;2023-02-10T08:31:38;99490.03;;;-0.91;71.60
35489;BME280;21602;55.670;37.578;2023-02-10T08:34:04;99484.91;;;-0.67;70.92
35489;BME280;21602;55.670;37.578;2023-02-10T08:36:30;99482.53;;;-0.52;70.46
35489;BME280;21602;55.670;37.578;2023-02-10T08:38:56;99473.19;;;-0.38;70.27
35489;BME280;21602;55.670;37.578;2023-02-10T08:41:22;99470.56;;;-0.38;68.59
35489;BME280;21602;55.670;37.578;2023-02-10T08:43:48;99456.97;;;-0.34;69.49
35489;BME280;21602;55.670;37.578;2023-02-10T08:46:14;99447.34;;;-0.33;68.70
35489;BME280;21602;55.670;37.578;2023-02-10T08:48:40;99447.19;;;-0.15;68.74
35489;BME280;21602;55.670;37.578;2023-02-10T08:51:11;99448.19;;;0.00;67.89
35489;BME280;21602;55.670;37.578;2023-02-10T08:53:38;99457.88;;;0.16;67.43
35489;BME280;21602;55.670;37.578;2023-02-10T08:56:09;99442.44;;;0.37;67.36
35489;BME280;21602;55.670;37.578;2023-02-10T08:58:35;99433.56;;;0.46;66.33
35489;BME280;21602;55.670;37.578;2023-02-10T09:01:17;99428.94;;;0.57;65.92
35489;BME280;21602;55.670;37.578;2023-02-10T09:03:44;99421.56;;;0.60;65.31
35489;BME280;21602;55.670;37.578;2023-02-10T09:08:43;99395.47;;;0.50;64.22
35489;BME280;21602;55.670;37.578;2023-02-10T09:11:09;99387.91;;;0.56;64.00
35489;BME280;21602;55.670;37.578;2023-02-10T09:13:35;99377.25;;;0.57;64.06
35489;BME280;21602;55.670;37.578;2023-02-10T09:16:02;99380.84;;;0.56;63.46
35489;BME280;21602;55.670;37.578;2023-02-10T09:18:28;99374.78;;;0.56;62.92
35489;BME280;21602;55.670;37.578;2023-02-10T09:20:57;99377.88;;;0.59;63.42
35489;BME280;21602;55.670;37.578;2023-02-10T09:23:22;99375.56;;;0.72;63.01
35489;BME280;21602;55.670;37.578;2023-02-10T09:25:56;99353.56;;;0.65;61.96
35489;BME280;21602;55.670;37.578;2023-02-10T09:28:23;99347.66;;;0.71;62.03
35489;BME280;21602;55.670;37.578;2023-02-10T09:30:55;99355.19;;;0.66;61.48
35489;BME280;21602;55.670;37.578;2023-02-10T09:33:21;99346.53;;;0.58;60.86
35489;BME280;21602;55.670;37.578;2023-02-10T09:35:48;99327.84;;;0.53;60.99
35489;BME280;21602;55.670;37.578;2023-02-10T09:38:14;99318.97;;;0.54;61.05
35489;BME280;21602;55.670;37.578;2023-02-10T09:40:52;99314.56;;;0.46;60.95
35489;BME280;21602;55.670;37.578;2023-02-10T09:43:46;99300.50;;;0.31;60.92
35489;BME280;21602;55.670;37.578;2023-02-10T09:52:33;99294.97;;;0.57;60.96
35489;BME280;21602;55.670;37.578;2023-02-10T09:55:08;99310.41;;;0.60;61.28
35489;BME280;21602;55.670;37.578;2023-02-10T09:57:41;99308.94;;;0.57;60.95
35489;BME280;21602;55.670;37.578;2023-02-10T10:00:42;99317.59;;;0.66;60.49
35489;BME280;21602;55.670;37.578;2023-02-10T10:03:17;99320.38;;;0.72;60.95
35489;BME280;21602;55.670;37.578;2023-02-10T10:06:03;99329.88;;;0.82;60.47
35489;BME280;21602;55.670;37.578;2023-02-10T10:08:53;99333.72;;;0.94;60.19
35489;BME280;21602;55.670;37.578;2023-02-10T10:11:27;99324.34;;;0.99;59.81
35489;BME280;21602;55.670;37.578;2023-02-10T10:13:56;99327.13;;;1.06;59.17
35489;BME280;21602;55.670;37.578;2023-02-10T10:19:48;99312.56;;;0.95;58.98
35489;BME280;21602;55.670;37.578;2023-02-10T10:30:19;99299.72;;;1.00;59.30
35489;BME280;21602;55.670;37.578;2023-02-10T10:32:55;99278.91;;;0.91;58.64
35489;BME280;21602;55.670;37.578;2023-02-10T10:35:28;99257.63;;;0.77;58.44
35489;BME280;21602;55.670;37.578;2023-02-10T10:37:55;99268.63;;;0.73;58.79
35489;BME280;21602;55.670;37.578;2023-02-10T10:40:28;99258.44;;;0.78;58.83
35489;BME280;21602;55.670;37.578;2023-02-10T10:42:58;99250.59;;;0.70;58.66
35489;BME280;21602;55.670;37.578;2023-02-10T10:45:34;99250.09;;;0.66;58.47
35489;BME280;21602;55.670;37.578;2023-02-10T10:48:08;99243.38;;;0.72;58.83
35489;BME280;21602;55.670;37.578;2023-02-10T10:50:35;99236.44;;;0.71;58.90
35489;BME280;21602;55.670;37.578;2023-02-10T10:53:05;99242.56;;;0.71;58.48
35489;BME280;21602;55.670;37.578;2023-02-10T10:55:40;99237.75;;;0.75;58.54
35489;BME280;21602;55.670;37.578;2023-02-10T11:00:52;99222.81;;;0.98;58.46
35489;BME280;21602;55.670;37.578;2023-02-10T11:03:19;99218.56;;;0.97;57.96
35489;BME280;21602;55.670;37.578;2023-02-10T11:06:02;99217.94;;;0.95;57.84
35489;BME280;21602;55.670;37.578;2023-02-10T11:08:33;99205.53;;;0.81;57.33
35489;BME280;21602;55.670;37.578;2023-02-10T11:11:02;99220.59;;;0.87;57.59
35489;BME280;21602;55.670;37.578;2023-02-10T11:13:31;99201.38;;;0.87;57.13
35489;BME280;21602;55.670;37.578;2023-02-10T11:18:29;99193.22;;;0.82;56.85
35489;BME280;21602;55.670;37.578;2023-02-10T11:21:02;99198.91;;;0.85;56.83
35489;BME280;21602;55.670;37.578;2023-02-10T11:23:29;99193.03;;;0.83;57.07
35489;BME280;21602;55.670;37.578;2023-02-10T11:26:06;99191.03;;;0.85;56.96
35489;BME280;21602;55.670;37.578;2023-02-10T11:28:34;99179.19;;;0.89;56.66
35489;BME280;21602;55.670;37.578;2023-02-10T11:31:04;99186.91;;;0.91;56.75
35489;BME280;21602;55.670;37.578;2023-02-10T11:33:32;99174.94;;;0.88;56.77
35489;BME280;21602;55.670;37.578;2023-02-10T11:36:05;99171.16;;;0.91;56.70
35489;BME280;21602;55.670;37.578;2023-02-10T11:38:33;99163.13;;;0.84;55.94
35489;BME280;21602;55.670;37.578;2023-02-10T11:41:02;99171.31;;;0.89;56.46
35489;BME280;21602;55.670;37.578;2023-02-10T11:43:35;99163.06;;;0.92;55.58
35489;BME280;21602;55.670;37.578;2023-02-10T11:46:03;99170.16;;;0.92;55.68
35489;BME280;21602;55.670;37.578;2023-02-10T11:48:31;99171.31;;;0.89;55.68
35489;BME280;21602;55.670;37.578;2023-02-10T11:51:14;99176.50;;;0.97;55.76
35489;BME280;21602;55.670;37.578;2023-02-10T11:53:42;99163.66;;;1.02;55.66
35489;BME280;21602;55.670;37.578;2023-02-10T11:56:20;99156.69;;;1.10;55.34
35489;BME280;21602;55.670;37.578;2023-02-10T11:59:02;99137.31;;;1.11;55.20
35489;BME280;21602;55.670;37.578;2023-02-10T12:07:15;99140.81;;;1.03;55.12
35489;BME280;21602;55.670;37.578;2023-02-10T12:18:13;99127.72;;;0.95;55.00
35489;BME280;21602;55.670;37.578;2023-02-10T12:34:20;99088.25;;;0.80;54.80
35489;BME280;21602;55.670;37.578;2023-02-10T12:36:57;99078.56;;;0.81;54.96
35489;BME280;21602;55.670;37.578;2023-02-10T12:52:49;99090.59;;;0.75;55.34
35489;BME280;21602;55.670;37.578;2023-02-10T12:55:23;99097.66;;;0.74;54.96
35489;BME280;21602;55.670;37.578;2023-02-10T12:58:02;99087.97;;;0.52;55.12
35489;BME280;21602;55.670;37.578;2023-02-10T13:00:52;99094.84;;;0.38;55.67
35489;BME280;21602;55.670;37.578;2023-02-10T13:03:22;99094.50;;;0.33;55.90
35489;BME280;21602;55.670;37.578;2023-02-10T13:06:16;99089.81;;;0.29;56.25
35489;BME280;21602;55.670;37.578;2023-02-10T13:08:48;99068.66;;;0.22;56.34
35489;BME280;21602;55.670;37.578;2023-02-10T13:14:05;99060.31;;;0.18;56.60
35489;BME280;21602;55.670;37.578;2023-02-10T13:16:35;99054.63;;;0.15;57.02
35489;BME280;21602;55.670;37.578;2023-02-10T13:25:18;99061.13;;;0.19;57.00
35489;BME280;21602;55.670;37.578;2023-02-10T13:28:01;99066.38;;;0.19;57.20
35489;BME280;21602;55.670;37.578;2023-02-10T13:35:50;99044.97;;;0.07;57.38
35489;BME280;21602;55.670;37.578;2023-02-10T13:38:19;99041.72;;;0.05;57.83
35489;BME280;21602;55.670;37.578;2023-02-10T13:40:56;99046.78;;;0.07;57.61
35489;BME280;21602;55.670;37.578;2023-02-10T13:43:41;99052.53;;;0.02;57.84
35489;BME280;21602;55.670;37.578;2023-02-10T13:46:23;99062.22;;;0.02;57.87
35489;BME280;21602;55.670;37.578;2023-02-10T13:48:54;99071.09;;;0.01;58.01
35489;BME280;21602;55.670;37.578;2023-02-10T13:51:39;99065.19;;;-0.02;58.19
35489;BME280;21602;55.670;37.578;2023-02-10T13:54:05;99071.94;;;-0.07;58.22
35489;BME280;21602;55.670;37.578;2023-02-10T13:56:33;99074.66;;;-0.23;58.50
35489;BME280;21602;55.670;37.578;2023-02-10T14:01:49;99073.22;;;-0.34;59.05
35489;BME280;21602;55.670;37.578;2023-02-10T14:04:39;99075.19;;;-0.36;59.18
35489;BME280;21602;55.670;37.578;2023-02-10T14:07:31;99069.13;;;-0.37;59.57
35489;BME280;21602;55.670;37.578;2023-02-10T14:10:07;99066.16;;;-0.34;59.02
35489;BME280;21602;55.670;37.578;2023-02-10T14:15:37;99050.91;;;-0.30;59.40
35489;BME280;21602;55.670;37.578;2023-02-10T14:18:28;99062.38;;;-0.31;59.45
35489;BME280;21602;55.670;37.578;2023-02-10T14:21:06;99048.47;;;-0.40;59.57
35489;BME280;21602;55.670;37.578;2023-02-10T14:23:39;99051.28;;;-0.41;59.80
35489;BME280;21602;55.670;37.578;2023-02-10T14:26:23;99046.38;;;-0.44;59.91
35489;BME280;21602;55.670;37.578;2023-02-10T14:28:55;99051.28;;;-0.41;60.04
35489;BME280;21602;55.670;37.578;2023-02-10T14:31:30;99049.16;;;-0.38;60.11
35489;BME280;21602;55.670;37.578;2023-02-10T14:34:04;99038.00;;;-0.40;60.06
35489;BME280;21602;55.670;37.578;2023-02-10T14:36:31;99034.56;;;-0.40;60.26
35489;BME280;21602;55.670;37.578;2023-02-10T14:38:58;99037.50;;;-0.43;60.46
35489;BME280;21602;55.670;37.578;2023-02-10T14:41:29;99040.50;;;-0.46;60.29
35489;BME280;21602;55.670;37.578;2023-02-10T14:43:56;99062.28;;;-0.46;60.56
35489;BME280;21602;55.670;37.578;2023-02-10T14:46:27;99051.13;;;-0.48;60.77
35489;BME280;21602;55.670;37.578;2023-02-10T14:49:02;99032.63;;;-0.46;60.79
35489;BME280;21602;55.670;37.578;2023-02-10T14:51:30;99064.09;;;-0.46;61.10
35489;BME280;21602;55.670;37.578;2023-02-10T14:54:10;99046.03;;;-0.41;61.08
35489;BME280;21602;55.670;37.578;2023-02-10T14:56:36;99050.94;;;-0.38;61.11